Time;durP1;ratioP1;P1;durP2;ratioP2;P2;SDS_P1;SDS_P2;PMS_P1;PMS_P2;Temp;Humidity;BMP_temperature;BMP_pressure;BME280_temperature;BME280_humidity;BME280_pressure;Samples;Min_cycle;Max_cycle;Signal;HPM_P1;HPM_P2
2023/09/06 00:00:42;;;;;;;4.35;2.28;;;;;;;;;;4986045;28;20033;-85
2023/09/06 00:03:08;;;;;;;;;;;;;;;;;;4984570;28;20419;-85
2023/09/06 00:05:33;;;;;;;4.43;2.30;;;;;;;;;;4953352;28;19980;-86
2023/09/06 00:08:04;;;;;;;4.18;2.22;;;;;;;;;;4990734;28;20088;-86
2023/09/06 00:10:29;;;;;;;5.40;2.00;;;;;;;;;;4963465;28;20050;-86
2023/09/06 00:12:54;;;;;;;5.65;2.22;;;;;;;;;;4960610;28;20093;-80
2023/09/06 00:15:20;;;;;;;4.20;2.30;;;;;;;;;;4964062;28;20045;-79
2023/09/06 00:17:45;;;;;;;3.65;2.25;;;;;;;;;;4983135;28;20045;-81
2023/09/06 00:20:21;;;;;;;3.42;2.30;;;;;;;;;;4967167;28;20033;-84
2023/09/06 00:22:57;;;;;;;3.45;2.20;;;;;;;;;;4965984;28;20027;-85
2023/09/06 00:25:24;;;;;;;4.20;2.17;;;;;;;;;;4968449;28;20026;-86
2023/09/06 00:27:50;;;;;;;4.15;2.42;;;;;;;;;;4947258;28;20069;-84
2023/09/06 00:30:16;;;;;;;5.32;2.88;;;;;;;;;;4967033;28;20033;-86
2023/09/06 00:32:42;;;;;;;3.25;2.03;;;;;;;;;;4968416;28;20469;-85
2023/09/06 00:35:08;;;;;;;5.78;2.30;;;;;;;;;;4989740;28;20388;-86
2023/09/06 00:37:37;;;;;;;3.15;1.92;;;;;;;;;;4983960;28;20034;-86
2023/09/06 00:40:37;;;;;;;3.40;2.13;;;;;;;;;;4966673;28;20030;-86
2023/09/06 00:42:59;;;;;;;4.97;2.25;;;;;;;;;;4976799;28;20046;-86
2023/09/06 00:45:27;;;;;;;4.15;2.20;;;;;;;;;;4984951;28;20385;-85
2023/09/06 00:47:55;;;;;;;3.63;2.00;;;;;;;;;;4967057;28;20394;-87
2023/09/06 00:50:21;;;;;;;3.33;2.13;;;;;;;;;;4967241;28;20679;-85
2023/09/06 00:52:49;;;;;;;3.70;2.20;;;;;;;;;;4982820;28;20026;-85
2023/09/06 00:55:14;;;;;;;3.90;2.20;;;;;;;;;;4985304;28;21567;-85
2023/09/06 00:57:40;;;;;;;2.92;2.03;;;;;;;;;;4966347;28;20032;-84
2023/09/06 01:00:22;;;;;;;4.38;2.00;;;;;;;;;;4985066;28;20153;-85
2023/09/06 01:02:49;;;;;;;4.27;2.50;;;;;;;;;;4966409;28;20022;-86
2023/09/06 01:05:17;;;;;;;4.25;2.22;;;;;;;;;;4970793;28;20022;-86
2023/09/06 01:07:51;;;;;;;3.72;2.35;;;;;;;;;;4966958;28;20386;-84
2023/09/06 01:10:17;;;;;;;4.18;2.15;;;;;;;;;;4966548;28;20034;-85
2023/09/06 01:12:42;;;;;;;54.22;4.00;;;;;;;;;;4983933;28;20096;-84
2023/09/06 01:15:10;;;;;;;4.05;2.17;;;;;;;;;;4988442;28;20029;-85
2023/09/06 01:17:37;;;;;;;4.22;2.40;;;;;;;;;;4971315;28;20081;-85
2023/09/06 01:20:21;;;;;;;3.88;2.75;;;;;;;;;;4992823;28;20359;-85
2023/09/06 01:23:10;;;;;;;5.72;2.60;;;;;;;;;;4966039;28;20125;-86
2023/09/06 01:25:36;;;;;;;4.97;2.45;;;;;;;;;;4933876;28;20042;-84
2023/09/06 01:28:02;;;;;;;3.40;2.03;;;;;;;;;;4946591;28;20037;-86
2023/09/06 01:30:29;;;;;;;4.00;2.40;;;;;;;;;;4972034;28;20471;-86
2023/09/06 01:32:54;;;;;;;3.55;2.53;;;;;;;;;;4988032;28;20417;-86
2023/09/06 01:35:20;;;;;;;4.35;2.33;;;;;;;;;;4989687;28;20022;-85
2023/09/06 01:37:45;;;;;;;4.25;2.55;;;;;;;;;;4955675;28;20038;-86
2023/09/06 01:40:21;;;;;;;4.75;2.53;;;;;;;;;;4974316;28;20485;-85
2023/09/06 01:42:47;;;;;;;3.95;2.53;;;;;;;;;;4990029;28;20022;-86
2023/09/06 01:45:17;;;;;;;5.45;2.50;;;;;;;;;;4990311;28;20439;-86
2023/09/06 01:47:49;;;;;;;6.07;2.50;;;;;;;;;;4972672;28;20030;-85
2023/09/06 01:50:19;;;;;;;3.90;2.63;;;;;;;;;;4974091;28;20393;-85
2023/09/06 01:52:47;;;;;;;5.38;2.50;;;;;;;;;;4972364;28;20026;-85
2023/09/06 01:55:13;;;;;;;4.93;2.72;;;;;;;;;;4969684;28;20037;-81
2023/09/06 01:57:38;;;;;;;4.68;2.63;;;;;;;;;;4976261;28;20041;-81
2023/09/06 02:02:49;;;;;;;4.30;2.72;;;;;;;;;;4990911;28;20391;-80
2023/09/06 02:05:15;;;;;;;4.32;2.80;;;;;;;;;;4991421;28;20034;-83
2023/09/06 02:07:40;;;;;;;5.57;2.97;;;;;;;;;;4967003;28;20026;-83
2023/09/06 02:10:09;;;;;;;4.60;2.53;;;;;;;;;;4972731;28;20026;-83
2023/09/06 02:12:35;;;;;;;6.32;2.70;;;;;;;;;;4984409;28;20125;-84
2023/09/06 02:15:00;;;;;;;4.43;2.58;;;;;;;;;;4982735;28;20034;-84
2023/09/06 02:17:27;;;;;;;5.18;2.92;;;;;;;;;;4984066;28;20172;-83
2023/09/06 02:19:52;;;;;;;5.25;3.03;;;;;;;;;;4990005;28;20026;-84
2023/09/06 02:22:18;;;;;;;4.63;2.40;;;;;;;;;;4987913;28;20034;-83
2023/09/06 02:24:44;;;;;;;6.10;2.63;;;;;;;;;;4972016;28;20490;-83
2023/09/06 02:27:12;;;;;;;4.38;2.60;;;;;;;;;;4966863;28;20405;-83
2023/09/06 02:29:38;;;;;;;4.25;2.80;;;;;;;;;;4987926;28;20448;-83
2023/09/06 02:32:03;;;;;;;4.85;2.78;;;;;;;;;;4985598;28;20125;-83
2023/09/06 02:34:29;;;;;;;3.83;2.65;;;;;;;;;;4984608;28;20058;-83
2023/09/06 02:36:54;;;;;;;5.82;2.92;;;;;;;;;;4966623;28;20037;-83
2023/09/06 02:39:19;;;;;;;5.25;3.00;;;;;;;;;;4990131;28;20065;-83
2023/09/06 02:41:46;;;;;;;4.20;2.72;;;;;;;;;;4972970;28;20037;-83
2023/09/06 02:44:12;;;;;;;5.18;3.20;;;;;;;;;;4966080;28;20026;-83
2023/09/06 02:46:38;;;;;;;4.65;3.03;;;;;;;;;;4965818;28;20471;-83
2023/09/06 02:49:11;;;;;;;6.05;2.92;;;;;;;;;;4972433;28;20030;-84
2023/09/06 02:51:43;;;;;;;4.68;2.90;;;;;;;;;;4984227;28;20050;-83
2023/09/06 02:54:09;;;;;;;7.32;2.80;;;;;;;;;;4985338;28;20026;-83
2023/09/06 02:56:38;;;;;;;4.20;2.72;;;;;;;;;;4982696;28;20418;-85
2023/09/06 02:59:07;;;;;;;4.57;2.95;;;;;;;;;;4964652;28;20037;-85
2023/09/06 03:01:38;;;;;;;4.72;3.00;;;;;;;;;;4965443;28;20038;-86
2023/09/06 03:04:06;;;;;;;5.13;3.15;;;;;;;;;;4985740;28;20030;-84
2023/09/06 03:06:33;;;;;;;3.80;2.67;;;;;;;;;;4985407;28;20030;-85
2023/09/06 03:08:59;;;;;;;6.45;2.95;;;;;;;;;;4967966;28;20493;-86
2023/09/06 03:11:25;;;;;;;3.90;2.63;;;;;;;;;;4966938;28;20022;-84
2023/09/06 03:13:55;;;;;;;6.10;3.45;;;;;;;;;;4982799;28;20356;-83
2023/09/06 03:16:22;;;;;;;6.13;3.20;;;;;;;;;;4964755;28;20030;-83
2023/09/06 03:18:49;;;;;;;4.75;3.20;;;;;;;;;;4984410;28;20038;-83
2023/09/06 03:21:16;;;;;;;5.38;3.15;;;;;;;;;;4967696;28;20026;-83
2023/09/06 03:23:44;;;;;;;5.43;2.60;;;;;;;;;;4988165;28;20084;-83
2023/09/06 03:26:10;;;;;;;4.60;2.95;;;;;;;;;;4989539;28;20038;-83
2023/09/06 03:28:44;;;;;;;4.95;2.70;;;;;;;;;;4965014;28;20496;-84
2023/09/06 03:31:12;;;;;;;4.28;2.85;;;;;;;;;;4967958;28;20557;-83
2023/09/06 03:33:39;;;;;;;4.40;2.90;;;;;;;;;;4976754;28;20026;-83
2023/09/06 03:36:07;;;;;;;5.53;2.88;;;;;;;;;;4964747;28;20039;-84
2023/09/06 03:38:36;;;;;;;4.40;2.75;;;;;;;;;;4965651;28;20467;-83
2023/09/06 03:41:02;;;;;;;6.88;2.80;;;;;;;;;;4968294;28;20030;-83
2023/09/06 03:43:32;;;;;;;4.53;2.90;;;;;;;;;;4969146;28;20711;-83
2023/09/06 03:45:58;;;;;;;4.40;3.10;;;;;;;;;;4962414;28;20035;-83
2023/09/06 03:48:27;;;;;;;5.53;3.40;;;;;;;;;;4964987;28;20415;-83
2023/09/06 03:50:58;;;;;;;4.55;2.75;;;;;;;;;;4965871;28;20036;-83
2023/09/06 03:53:27;;;;;;;4.70;3.17;;;;;;;;;;4968981;28;20022;-83
2023/09/06 03:55:57;;;;;;;5.18;3.25;;;;;;;;;;4984320;28;20122;-84
2023/09/06 03:58:26;;;;;;;5.32;3.40;;;;;;;;;;4984580;28;20496;-83
2023/09/06 04:00:52;;;;;;;5.60;3.33;;;;;;;;;;4963910;28;20035;-84
2023/09/06 04:03:22;;;;;;;5.18;3.10;;;;;;;;;;4963294;28;20486;-83
2023/09/06 04:05:48;;;;;;;5.10;3.30;;;;;;;;;;4967735;28;20030;-80
2023/09/06 04:08:19;;;;;;;5.70;3.33;;;;;;;;;;4981131;28;20022;-80
2023/09/06 04:10:45;;;;;;;5.63;3.63;;;;;;;;;;4969035;28;20027;-81
2023/09/06 04:13:13;;;;;;;5.95;3.40;;;;;;;;;;4963268;28;20038;-80
2023/09/06 04:15:40;;;;;;;6.28;3.00;;;;;;;;;;4966468;28;20026;-79
2023/09/06 04:18:09;;;;;;;5.00;3.47;;;;;;;;;;4983874;28;20073;-79
2023/09/06 04:20:36;;;;;;;5.45;3.78;;;;;;;;;;4989347;28;20579;-79
2023/09/06 04:23:04;;;;;;;5.25;3.95;;;;;;;;;;4964196;28;20709;-79
2023/09/06 04:25:33;;;;;;;6.20;3.95;;;;;;;;;;4984416;28;20062;-85
2023/09/06 04:27:59;;;;;;;4.82;3.63;;;;;;;;;;4980747;28;20410;-85
2023/09/06 04:30:28;;;;;;;5.90;3.97;;;;;;;;;;4969293;28;20026;-79
2023/09/06 04:32:54;;;;;;;5.32;3.47;;;;;;;;;;4964726;28;20418;-81
2023/09/06 04:35:22;;;;;;;4.75;3.30;;;;;;;;;;4988851;28;20081;-80
2023/09/06 04:37:47;;;;;;;5.93;3.90;;;;;;;;;;4982502;28;20050;-80
2023/09/06 04:40:13;;;;;;;6.20;3.78;;;;;;;;;;4980087;28;20061;-80
2023/09/06 04:42:40;;;;;;;6.72;3.80;;;;;;;;;;4966373;28;20499;-80
2023/09/06 04:45:08;;;;;;;5.13;3.92;;;;;;;;;;4977404;28;20669;-79
2023/09/06 04:47:34;;;;;;;6.10;3.70;;;;;;;;;;4959447;28;20022;-86
2023/09/06 04:50:00;;;;;;;5.55;3.70;;;;;;;;;;4966234;28;20026;-87
2023/09/06 04:52:27;;;;;;;4.80;3.65;;;;;;;;;;4967257;28;20074;-87
2023/09/06 04:54:52;;;;;;;4.90;3.70;;;;;;;;;;4984522;28;20019;-85
2023/09/06 04:57:18;;;;;;;8.52;3.67;;;;;;;;;;4979108;28;20029;-86
2023/09/06 04:59:43;;;;;;;6.13;3.55;;;;;;;;;;4968571;28;20066;-87
2023/09/06 05:02:08;;;;;;;6.25;3.95;;;;;;;;;;4974696;28;20030;-87
2023/09/06 05:04:36;;;;;;;5.88;3.72;;;;;;;;;;4970560;28;20092;-87
2023/09/06 05:07:02;;;;;;;5.55;3.90;;;;;;;;;;4990182;28;20437;-87
2023/09/06 05:09:28;;;;;;;5.45;3.88;;;;;;;;;;4968278;28;20467;-87
2023/09/06 05:11:53;;;;;;;6.35;3.88;;;;;;;;;;4987404;28;20032;-86
2023/09/06 05:14:19;;;;;;;6.18;3.75;;;;;;;;;;4965959;28;20026;-87
2023/09/06 05:16:44;;;;;;;6.15;3.83;;;;;;;;;;4985184;28;20093;-87
2023/09/06 05:19:10;;;;;;;8.38;4.65;;;;;;;;;;4974025;28;20058;-84
2023/09/06 05:21:38;;;;;;;6.57;3.97;;;;;;;;;;4990368;28;20121;-85
2023/09/06 05:24:06;;;;;;;5.40;3.63;;;;;;;;;;4969592;28;20030;-87
2023/09/06 05:26:35;;;;;;;6.53;4.20;;;;;;;;;;4986940;28;20436;-87
2023/09/06 05:29:36;;;;;;;5.03;3.92;;;;;;;;;;4966205;28;20109;-86
2023/09/06 05:32:03;;;;;;;6.13;3.67;;;;;;;;;;4970059;28;20026;-87
2023/09/06 05:34:29;;;;;;;5.97;3.72;;;;;;;;;;4991387;28;20029;-83
2023/09/06 05:36:55;;;;;;;6.82;3.72;;;;;;;;;;4991157;28;20490;-82
2023/09/06 05:39:20;;;;;;;5.95;4.07;;;;;;;;;;4972856;28;20030;-82
2023/09/06 05:41:50;;;;;;;6.05;3.95;;;;;;;;;;4969962;28;20037;-82
2023/09/06 05:44:15;;;;;;;7.53;4.38;;;;;;;;;;4992440;28;20034;-83
2023/09/06 05:46:41;;;;;;;5.85;4.50;;;;;;;;;;4985023;28;20026;-83
2023/09/06 05:49:08;;;;;;;6.18;4.10;;;;;;;;;;4970020;28;20113;-83
2023/09/06 05:51:33;;;;;;;6.30;3.97;;;;;;;;;;4970998;28;20779;-83
2023/09/06 05:54:00;;;;;;;7.03;4.40;;;;;;;;;;4970756;28;20018;-83
2023/09/06 05:56:25;;;;;;;5.45;3.63;;;;;;;;;;4967761;28;20060;-83
2023/09/06 05:58:51;;;;;;;6.32;3.92;;;;;;;;;;4983827;28;20034;-83
2023/09/06 06:01:17;;;;;;;6.40;4.03;;;;;;;;;;4985552;28;20422;-83
2023/09/06 06:03:43;;;;;;;5.75;3.85;;;;;;;;;;4969758;28;20030;-83
2023/09/06 06:06:10;;;;;;;4.53;3.63;;;;;;;;;;4965628;28;20027;-83
2023/09/06 06:08:37;;;;;;;7.00;4.20;;;;;;;;;;4983181;28;20475;-83
2023/09/06 06:11:03;;;;;;;7.47;4.95;;;;;;;;;;4968801;28;20502;-83
2023/09/06 06:13:28;;;;;;;7.65;5.43;;;;;;;;;;4965911;28;20082;-83
2023/09/06 06:15:54;;;;;;;7.07;4.82;;;;;;;;;;4987272;28;20489;-83
2023/09/06 06:18:19;;;;;;;6.47;4.70;;;;;;;;;;4972849;28;20477;-83
2023/09/06 06:20:44;;;;;;;5.80;4.55;;;;;;;;;;4969028;28;20030;-83
2023/09/06 06:23:10;;;;;;;7.35;5.50;;;;;;;;;;4970037;28;20115;-80
2023/09/06 06:25:36;;;;;;;10.07;5.75;;;;;;;;;;4971169;28;20037;-85
2023/09/06 06:28:01;;;;;;;7.47;5.65;;;;;;;;;;4986889;28;20256;-87
2023/09/06 06:30:26;;;;;;;6.75;5.03;;;;;;;;;;4973247;28;20084;-85
2023/09/06 06:32:52;;;;;;;7.32;5.10;;;;;;;;;;4989592;28;20072;-86
2023/09/06 06:35:18;;;;;;;8.25;5.63;;;;;;;;;;4986399;28;20030;-86
2023/09/06 06:37:43;;;;;;;8.25;5.88;;;;;;;;;;4973704;28;20041;-85
2023/09/06 06:40:09;;;;;;;7.20;5.63;;;;;;;;;;4972353;28;20034;-86
2023/09/06 06:42:35;;;;;;;6.03;4.65;;;;;;;;;;4987778;28;20569;-87
2023/09/06 06:45:03;;;;;;;7.95;5.88;;;;;;;;;;4990913;28;20073;-85
2023/09/06 06:47:28;;;;;;;9.05;5.82;;;;;;;;;;4982629;28;20050;-84
2023/09/06 06:50:02;;;;;;;9.43;5.28;;;;;;;;;;4971051;28;20383;-84
2023/09/06 06:52:30;;;;;;;6.88;4.88;;;;;;;;;;4976500;28;20394;-84
2023/09/06 06:54:56;;;;;;;7.65;5.25;;;;;;;;;;4972235;28;20112;-84
2023/09/06 06:57:21;;;;;;;12.63;6.72;;;;;;;;;;4975057;28;20030;-87
2023/09/06 06:59:47;;;;;;;7.65;6.00;;;;;;;;;;4989903;28;20022;-86
2023/09/06 07:02:13;;;;;;;7.53;5.38;;;;;;;;;;4967769;28;20030;-85
2023/09/06 07:04:39;;;;;;;6.95;5.47;;;;;;;;;;4975607;28;20041;-80
2023/09/06 07:07:06;;;;;;;6.88;5.85;;;;;;;;;;4992324;28;20026;-80
2023/09/06 07:09:32;;;;;;;6.68;5.30;;;;;;;;;;4994964;28;20022;-87
2023/09/06 07:11:58;;;;;;;9.18;5.50;;;;;;;;;;4974818;28;20026;-84
2023/09/06 07:14:24;;;;;;;8.70;5.30;;;;;;;;;;4973269;28;20113;-83
2023/09/06 07:16:49;;;;;;;8.18;5.32;;;;;;;;;;4993839;28;20113;-83
2023/09/06 07:19:15;;;;;;;7.00;5.50;;;;;;;;;;4989315;28;20034;-84
2023/09/06 07:21:40;;;;;;;8.73;5.97;;;;;;;;;;4990407;28;20109;-83
2023/09/06 07:24:09;;;;;;;6.70;4.68;;;;;;;;;;4970380;28;20546;-84
2023/09/06 07:26:35;;;;;;;8.13;5.40;;;;;;;;;;4990953;28;20041;-84
2023/09/06 07:29:00;;;;;;;7.13;5.28;;;;;;;;;;4975980;28;20038;-83
2023/09/06 07:31:25;;;;;;;7.53;5.50;;;;;;;;;;4993459;28;20426;-84
2023/09/06 07:33:54;;;;;;;8.88;5.13;;;;;;;;;;4961462;28;20421;-83
2023/09/06 07:36:19;;;;;;;7.70;5.32;;;;;;;;;;4975696;28;20026;-83
2023/09/06 07:38:45;;;;;;;8.65;4.57;;;;;;;;;;4975845;28;20380;-82
2023/09/06 07:41:11;;;;;;;6.10;4.28;;;;;;;;;;4994540;28;20026;-83
2023/09/06 07:43:37;;;;;;;5.88;4.25;;;;;;;;;;4972993;28;20498;-79
2023/09/06 07:46:07;;;;;;;6.63;4.85;;;;;;;;;;4988468;28;20031;-80
2023/09/06 07:48:32;;;;;;;7.00;4.75;;;;;;;;;;4986266;28;20031;-80
2023/09/06 07:50:59;;;;;;;5.70;3.97;;;;;;;;;;4992353;28;20022;-80
2023/09/06 07:53:28;;;;;;;7.00;4.82;;;;;;;;;;4976297;28;20022;-80
2023/09/06 07:55:53;;;;;;;7.05;4.40;;;;;;;;;;4990527;28;20084;-80
2023/09/06 07:58:19;;;;;;;7.32;3.95;;;;;;;;;;4969168;28;20023;-80
2023/09/06 08:00:46;;;;;;;6.85;4.13;;;;;;;;;;4974126;28;20541;-80
2023/09/06 08:03:11;;;;;;;5.72;4.38;;;;;;;;;;4979841;28;20034;-80
2023/09/06 08:05:38;;;;;;;6.47;4.80;;;;;;;;;;4973937;28;20060;-83
2023/09/06 08:08:11;;;;;;;6.68;4.50;;;;;;;;;;4974571;28;20478;-87
2023/09/06 08:10:38;;;;;;;6.47;4.45;;;;;;;;;;4988532;28;20062;-86
2023/09/06 08:13:04;;;;;;;8.38;5.05;;;;;;;;;;4989850;28;20030;-87
2023/09/06 08:15:30;;;;;;;7.97;4.60;;;;;;;;;;4986353;28;20026;-83
2023/09/06 08:17:56;;;;;;;5.55;4.00;;;;;;;;;;4971089;28;20500;-83
2023/09/06 08:20:21;;;;;;;7.05;3.85;;;;;;;;;;4988076;28;20030;-84
2023/09/06 08:22:47;;;;;;;4.75;3.22;;;;;;;;;;4975052;28;20030;-83
2023/09/06 08:25:13;;;;;;;5.60;3.70;;;;;;;;;;4993741;28;20084;-83
2023/09/06 08:27:39;;;;;;;5.38;3.20;;;;;;;;;;4971216;28;20018;-83
2023/09/06 08:30:10;;;;;;;6.32;3.65;;;;;;;;;;4971646;28;20032;-83
2023/09/06 08:32:35;;;;;;;8.85;3.08;;;;;;;;;;4977306;28;20030;-83
2023/09/06 08:35:01;;;;;;;5.25;2.90;;;;;;;;;;4975975;28;20045;-83
2023/09/06 08:37:26;;;;;;;4.80;3.30;;;;;;;;;;4972658;28;20109;-86
2023/09/06 08:39:51;;;;;;;4.18;2.60;;;;;;;;;;4990134;28;20061;-86
2023/09/06 08:42:20;;;;;;;4.15;2.50;;;;;;;;;;4971629;28;20061;-87
2023/09/06 08:44:48;;;;;;;3.38;2.38;;;;;;;;;;4972170;28;20033;-86
2023/09/06 08:47:17;;;;;;;5.30;2.85;;;;;;;;;;4981661;28;20045;-87
2023/09/06 08:49:45;;;;;;;5.40;2.65;;;;;;;;;;4983288;28;20031;-87
2023/09/06 08:52:14;;;;;;;7.18;2.90;;;;;;;;;;4994281;28;20874;-86
2023/09/06 08:54:43;;;;;;;5.53;3.03;;;;;;;;;;4995627;28;20026;-86
2023/09/06 08:57:10;;;;;;;5.45;2.67;;;;;;;;;;4974381;28;20505;-86
2023/09/06 08:59:37;;;;;;;8.60;3.17;;;;;;;;;;4993727;28;20022;-86
2023/09/06 09:02:04;;;;;;;4.95;3.10;;;;;;;;;;4994406;28;20038;-85
2023/09/06 09:04:32;;;;;;;9.18;2.95;;;;;;;;;;4974865;28;20037;-85
2023/09/06 09:07:00;;;;;;;5.20;2.58;;;;;;;;;;4972570;28;20389;-86
2023/09/06 09:09:26;;;;;;;6.38;2.95;;;;;;;;;;4975609;28;20466;-86
2023/09/06 09:11:54;;;;;;;6.00;2.63;;;;;;;;;;4986058;28;20041;-87
2023/09/06 09:14:24;;;;;;;7.85;3.50;;;;;;;;;;4988123;28;20121;-87
2023/09/06 09:16:59;;;;;;;7.45;3.00;;;;;;;;;;4978963;28;20029;-87
2023/09/06 09:19:26;;;;;;;5.88;3.00;;;;;;;;;;4994853;28;20057;-86
2023/09/06 09:21:53;;;;;;;5.95;2.85;;;;;;;;;;4971899;28;20023;-87
2023/09/06 09:24:29;;;;;;;4.22;3.00;;;;;;;;;;4992575;28;20495;-81
2023/09/06 09:26:56;;;;;;;7.55;2.80;;;;;;;;;;4973901;28;20022;-80
2023/09/06 09:29:22;;;;;;;7.70;2.65;;;;;;;;;;4976912;28;20038;-80
2023/09/06 09:31:48;;;;;;;4.60;2.80;;;;;;;;;;4993363;28;20038;-81
2023/09/06 09:34:13;;;;;;;3.65;2.67;;;;;;;;;;4974471;28;20042;-81
2023/09/06 09:36:39;;;;;;;5.05;2.40;;;;;;;;;;4972645;28;20034;-81
2023/09/06 09:39:09;;;;;;;3.80;2.10;;;;;;;;;;4975731;28;20023;-80
2023/09/06 09:41:35;;;;;;;5.38;2.30;;;;;;;;;;4977371;28;20023;-80
2023/09/06 09:44:19;;;;;;;3.90;2.65;;;;;;;;;;4973707;28;20033;-81
2023/09/06 09:46:45;;;;;;;6.70;2.80;;;;;;;;;;4993081;28;20053;-80
2023/09/06 09:49:12;;;;;;;4.47;2.30;;;;;;;;;;4985041;28;20120;-81
2023/09/06 09:51:39;;;;;;;4.75;2.40;;;;;;;;;;4971587;28;20088;-80
2023/09/06 09:54:05;;;;;;;5.18;2.60;;;;;;;;;;4994746;28;20670;-81
2023/09/06 09:56:33;;;;;;;4.63;2.38;;;;;;;;;;4994020;28;20037;-81
2023/09/06 09:59:01;;;;;;;4.40;2.78;;;;;;;;;;4995113;28;20366;-81
2023/09/06 10:01:31;;;;;;;4.45;2.30;;;;;;;;;;5008789;28;20026;-80
2023/09/06 10:03:58;;;;;;;3.33;2.15;;;;;;;;;;4987198;28;20045;-81
2023/09/06 10:06:27;;;;;;;4.47;2.70;;;;;;;;;;5001213;28;20052;-81
2023/09/06 10:08:58;;;;;;;4.90;2.70;;;;;;;;;;4996653;28;20374;-81
2023/09/06 10:11:25;;;;;;;4.90;2.80;;;;;;;;;;4996584;28;20030;-81
2023/09/06 10:13:52;;;;;;;4.20;2.55;;;;;;;;;;5016804;28;20121;-81
2023/09/06 10:16:19;;;;;;;3.53;2.17;;;;;;;;;;4996689;28;20029;-81
2023/09/06 10:18:44;;;;;;;4.03;2.42;;;;;;;;;;4995151;28;20128;-81
2023/09/06 10:21:12;;;;;;;3.58;2.20;;;;;;;;;;4995682;28;20116;-81
2023/09/06 10:23:41;;;;;;;5.93;2.45;;;;;;;;;;5013963;28;20068;-81
2023/09/06 10:26:09;;;;;;;6.18;2.40;;;;;;;;;;4994622;28;20033;-81
2023/09/06 10:28:37;;;;;;;3.92;2.50;;;;;;;;;;4998634;28;20140;-81
2023/09/06 10:31:09;;;;;;;4.50;2.50;;;;;;;;;;5001004;28;20036;-81
2023/09/06 10:33:37;;;;;;;4.28;2.33;;;;;;;;;;4997747;28;20021;-81
2023/09/06 10:36:08;;;;;;;3.88;2.08;;;;;;;;;;4998995;28;20580;-81
2023/09/06 10:38:58;;;;;;;3.20;2.08;;;;;;;;;;4993264;28;20430;-81
2023/09/06 10:41:27;;;;;;;4.80;2.45;;;;;;;;;;5008788;28;20033;-81
2023/09/06 10:43:58;;;;;;;3.40;2.20;;;;;;;;;;4987503;28;20492;-82
2023/09/06 10:46:26;;;;;;;4.07;2.60;;;;;;;;;;4994858;28;20056;-82
2023/09/06 10:49:13;;;;;;;4.22;2.20;;;;;;;;;;4995981;28;20038;-80
2023/09/06 10:52:14;;;;;;;4.45;2.40;;;;;;;;;;5014321;28;20021;-81
2023/09/06 10:54:42;;;;;;;4.72;2.58;;;;;;;;;;4919723;28;20026;-82
2023/09/06 10:57:10;;;;;;;4.07;2.20;;;;;;;;;;4980997;28;20112;-84
2023/09/06 10:59:43;;;;;;;4.32;2.40;;;;;;;;;;4984062;28;20032;-81
2023/09/06 11:02:24;;;;;;;4.55;2.40;;;;;;;;;;4989024;28;20092;-87
2023/09/06 11:05:05;;;;;;;3.75;2.30;;;;;;;;;;4996937;28;20049;-86
2023/09/06 11:07:41;;;;;;;4.55;2.35;;;;;;;;;;5013141;28;20393;-82
2023/09/06 11:10:07;;;;;;;4.13;2.30;;;;;;;;;;4994313;28;20061;-81
2023/09/06 11:12:42;;;;;;;4.13;2.13;;;;;;;;;;5006993;28;20025;-81
2023/09/06 11:15:10;;;;;;;4.00;2.33;;;;;;;;;;4992844;28;20026;-81
2023/09/06 11:17:38;;;;;;;3.78;2.17;;;;;;;;;;5014365;28;20033;-82
2023/09/06 11:20:14;;;;;;;3.72;2.10;;;;;;;;;;4973775;28;20486;-81
2023/09/06 11:22:58;;;;;;;4.28;2.10;;;;;;;;;;4988598;28;20444;-82
2023/09/06 11:25:28;;;;;;;3.42;2.10;;;;;;;;;;5007325;28;20030;-81
2023/09/06 11:27:59;;;;;;;5.47;2.00;;;;;;;;;;4994802;28;20033;-82
2023/09/06 11:30:26;;;;;;;5.18;1.85;;;;;;;;;;4986781;28;20502;-81
2023/09/06 11:32:56;;;;;;;3.53;2.00;;;;;;;;;;4999182;28;20027;-82
2023/09/06 11:35:33;;;;;;;4.50;1.88;;;;;;;;;;4987353;28;20517;-82
2023/09/06 11:38:02;;;;;;;3.92;2.10;;;;;;;;;;4988636;28;20026;-82
2023/09/06 11:40:31;;;;;;;3.83;2.10;;;;;;;;;;5011192;28;20033;-82
2023/09/06 11:43:10;;;;;;;4.20;2.13;;;;;;;;;;4988751;28;20041;-83
2023/09/06 11:45:36;;;;;;;4.78;2.20;;;;;;;;;;4986732;28;20045;-82
2023/09/06 11:48:19;;;;;;;3.10;2.10;;;;;;;;;;4990867;28;20481;-82
2023/09/06 11:50:47;;;;;;;4.70;2.40;;;;;;;;;;4982218;28;20128;-82
2023/09/06 11:53:14;;;;;;;5.45;2.47;;;;;;;;;;5012403;28;20018;-82
2023/09/06 11:55:43;;;;;;;5.85;2.38;;;;;;;;;;4995207;28;20022;-83
2023/09/06 11:58:16;;;;;;;3.72;2.10;;;;;;;;;;5013848;28;20390;-81
2023/09/06 12:00:46;;;;;;;6.28;2.50;;;;;;;;;;4996080;28;20652;-82
2023/09/06 12:03:16;;;;;;;4.40;2.55;;;;;;;;;;4994532;28;20101;-82
2023/09/06 12:05:43;;;;;;;4.65;2.33;;;;;;;;;;4992857;28;20076;-82
2023/09/06 12:08:17;;;;;;;3.47;2.17;;;;;;;;;;5017097;28;20065;-82
2023/09/06 12:10:49;;;;;;;5.57;2.25;;;;;;;;;;4995448;28;20041;-82
2023/09/06 12:13:15;;;;;;;4.28;2.30;;;;;;;;;;4998528;28;20033;-82
2023/09/06 12:15:57;;;;;;;3.65;2.50;;;;;;;;;;4994116;28;20048;-82
2023/09/06 12:18:44;;;;;;;5.03;2.08;;;;;;;;;;4998859;28;20056;-81
2023/09/06 12:21:09;;;;;;;3.88;2.20;;;;;;;;;;5005020;28;20181;-82
2023/09/06 12:23:37;;;;;;;3.63;2.00;;;;;;;;;;4995289;28;20113;-82
2023/09/06 12:26:03;;;;;;;4.70;2.17;;;;;;;;;;4995429;28;20026;-81
2023/09/06 12:28:29;;;;;;;3.05;2.05;;;;;;;;;;4993170;28;20026;-82
2023/09/06 12:31:02;;;;;;;4.18;1.98;;;;;;;;;;4996129;28;20478;-82
2023/09/06 12:33:28;;;;;;;3.47;2.00;;;;;;;;;;4993393;28;20022;-82
2023/09/06 12:36:00;;;;;;;3.95;2.33;;;;;;;;;;4988321;28;20029;-83
2023/09/06 12:38:30;;;;;;;5.18;2.30;;;;;;;;;;5009733;28;20362;-82
2023/09/06 12:40:56;;;;;;;4.15;2.38;;;;;;;;;;5007143;28;20057;-83
2023/09/06 12:43:26;;;;;;;6.15;2.50;;;;;;;;;;4990836;28;20085;-82
2023/09/06 12:45:53;;;;;;;3.20;2.25;;;;;;;;;;4986102;28;20037;-82
2023/09/06 12:48:22;;;;;;;3.97;2.25;;;;;;;;;;5007215;28;20125;-82
2023/09/06 12:50:49;;;;;;;3.53;2.10;;;;;;;;;;4991640;28;20065;-82
2023/09/06 12:53:14;;;;;;;4.22;2.13;;;;;;;;;;4999152;28;20417;-82
2023/09/06 12:55:40;;;;;;;3.03;1.90;;;;;;;;;;4990372;28;20180;-85
2023/09/06 12:58:05;;;;;;;5.55;2.30;;;;;;;;;;4993815;28;20477;-85
2023/09/06 13:00:32;;;;;;;4.75;2.28;;;;;;;;;;5011245;28;20041;-86
2023/09/06 13:02:59;;;;;;;3.22;2.35;;;;;;;;;;4990806;28;20049;-86
2023/09/06 13:05:26;;;;;;;3.58;2.05;;;;;;;;;;4992280;28;20477;-86
2023/09/06 13:07:51;;;;;;;3.97;2.22;;;;;;;;;;4997270;28;20030;-85
2023/09/06 13:10:16;;;;;;;3.63;2.30;;;;;;;;;;4988288;28;20038;-85
2023/09/06 13:13:06;;;;;;;3.33;2.20;;;;;;;;;;5008189;28;20084;-86
2023/09/06 13:15:48;;;;;;;4.07;2.25;;;;;;;;;;5010434;28;20026;-85
2023/09/06 13:18:13;;;;;;;4.82;2.10;;;;;;;;;;5009748;28;20544;-85
2023/09/06 13:20:38;;;;;;;3.50;2.03;;;;;;;;;;5010596;28;20157;-85
2023/09/06 13:23:04;;;;;;;6.13;2.40;;;;;;;;;;4998777;28;20037;-86
2023/09/06 13:25:35;;;;;;;5.47;2.10;;;;;;;;;;5010874;28;20051;-85
2023/09/06 13:28:04;;;;;;;3.30;2.08;;;;;;;;;;4971496;28;20030;-85
2023/09/06 13:30:30;;;;;;;5.63;2.00;;;;;;;;;;5018358;28;20018;-85
2023/09/06 13:32:55;;;;;;;2.80;1.85;;;;;;;;;;4998221;28;20052;-85
2023/09/06 13:35:23;;;;;;;4.05;2.10;;;;;;;;;;4997880;28;20033;-85
2023/09/06 13:37:59;;;;;;;2.95;1.95;;;;;;;;;;4999390;28;20033;-85
2023/09/06 13:40:25;;;;;;;3.85;2.13;;;;;;;;;;4991244;28;20028;-85
2023/09/06 13:42:51;;;;;;;2.92;1.90;;;;;;;;;;4996330;28;20030;-85
2023/09/06 13:45:17;;;;;;;3.95;2.20;;;;;;;;;;4992686;28;20125;-85
2023/09/06 13:47:43;;;;;;;4.88;2.80;;;;;;;;;;5004418;28;20057;-85
2023/09/06 13:50:09;;;;;;;3.17;1.90;;;;;;;;;;5012537;28;20038;-85
2023/09/06 13:52:34;;;;;;;5.82;2.42;;;;;;;;;;4993962;28;21504;-85
2023/09/06 13:55:00;;;;;;;5.63;2.20;;;;;;;;;;4999656;28;20033;-85
2023/09/06 13:57:28;;;;;;;4.22;2.00;;;;;;;;;;4993822;28;20084;-85
2023/09/06 13:59:55;;;;;;;3.15;2.15;;;;;;;;;;4981581;28;20141;-85
2023/09/06 14:02:20;;;;;;;3.20;1.90;;;;;;;;;;4981652;28;20530;-84
2023/09/06 14:04:47;;;;;;;3.20;2.00;;;;;;;;;;4978631;28;20035;-85
2023/09/06 14:07:13;;;;;;;5.85;1.83;;;;;;;;;;4994160;28;20034;-85
2023/09/06 14:09:38;;;;;;;3.15;2.10;;;;;;;;;;4976924;28;20025;-85
2023/09/06 14:12:03;;;;;;;4.43;2.35;;;;;;;;;;4976019;28;20037;-85
2023/09/06 14:14:29;;;;;;;3.65;1.90;;;;;;;;;;4988634;28;20022;-84
2023/09/06 14:17:00;;;;;;;3.03;1.80;;;;;;;;;;4991747;28;20042;-85
2023/09/06 14:19:27;;;;;;;4.88;2.05;;;;;;;;;;4973631;28;20041;-85
2023/09/06 14:21:53;;;;;;;4.75;2.20;;;;;;;;;;4991100;28;20427;-85
2023/09/06 14:24:18;;;;;;;3.60;2.00;;;;;;;;;;4989665;28;20038;-85
2023/09/06 14:26:44;;;;;;;3.75;2.25;;;;;;;;;;4970478;28;20032;-85
2023/09/06 14:29:10;;;;;;;3.78;1.90;;;;;;;;;;4975696;28;20061;-85
2023/09/06 14:31:36;;;;;;;3.67;1.88;;;;;;;;;;4971384;28;20037;-85
2023/09/06 14:34:03;;;;;;;3.75;2.17;;;;;;;;;;4973717;28;20034;-82
2023/09/06 14:36:29;;;;;;;3.95;2.10;;;;;;;;;;4972326;28;20027;-81
2023/09/06 14:38:54;;;;;;;5.53;2.20;;;;;;;;;;4974240;28;20033;-82
2023/09/06 14:41:21;;;;;;;4.15;2.05;;;;;;;;;;4971329;28;20030;-82
2023/09/06 14:43:46;;;;;;;2.88;2.00;;;;;;;;;;4990101;28;20086;-82
2023/09/06 14:46:12;;;;;;;5.85;2.30;;;;;;;;;;4991014;28;20069;-83
2023/09/06 14:48:37;;;;;;;3.20;2.20;;;;;;;;;;4975236;28;20041;-82
2023/09/06 14:51:03;;;;;;;4.63;2.30;;;;;;;;;;4995741;28;20034;-81